createdAt,value
2023-05-02T00:00:40.028Z,11.8
2023-05-02T00:06:32.539Z,11.8
2023-05-02T00:13:34.508Z,12.1
2023-05-02T00:19:25.160Z,12.1
2023-05-02T00:25:17.372Z,12.1
2023-05-02T00:31:11.450Z,12.1
2023-05-02T00:37:03.945Z,12
2023-05-02T00:42:56.624Z,12.1
2023-05-02T00:48:50.301Z,12.1
2023-05-02T00:54:42.787Z,12.1
2023-05-02T01:00:34.610Z,12.2
2023-05-02T01:06:26.677Z,12.1
2023-05-02T01:12:19.231Z,12.2
2023-05-02T01:18:10.549Z,12.2
2023-05-02T01:24:03.542Z,12.2
2023-05-02T01:29:55.900Z,12.2
2023-05-02T01:35:49.168Z,12.1
2023-05-02T01:41:41.812Z,12.3
2023-05-02T01:47:34.262Z,12.2
2023-05-02T01:53:27.118Z,12.3
2023-05-02T01:59:19.513Z,12.3
2023-05-02T02:05:11.377Z,12.2
2023-05-02T02:11:03.446Z,12.2
2023-05-02T02:16:55.005Z,12.2
2023-05-02T02:22:47.643Z,12.3
2023-05-02T02:28:39.468Z,12.2
2023-05-02T02:34:31.463Z,12.1
2023-05-02T02:40:22.985Z,11.9
2023-05-02T02:46:14.863Z,11.9
2023-05-02T02:52:06.328Z,11.9
2023-05-02T02:57:58.665Z,11.8
2023-05-02T03:03:51.007Z,11.8
2023-05-02T03:09:43.150Z,11.8
2023-05-02T03:15:35.858Z,11.8
2023-05-02T03:21:29.848Z,11.7
2023-05-02T03:27:21.347Z,11.8
2023-05-02T03:33:14.085Z,11.7
2023-05-02T03:39:06.995Z,11.7
2023-05-02T03:44:59.101Z,11.7
2023-05-02T03:50:51.245Z,11.7
2023-05-02T03:56:42.771Z,11.5
2023-05-02T04:02:34.816Z,11.6
2023-05-02T04:08:28.191Z,11.5
2023-05-02T04:14:20.331Z,11.5
2023-05-02T04:20:13.242Z,11.5
2023-05-02T04:26:05.787Z,11.5
2023-05-02T04:31:59.628Z,11.6
2023-05-02T04:37:54.504Z,11.4
2023-05-02T04:43:46.541Z,11.6
2023-05-02T04:49:38.854Z,11.4
2023-05-02T04:55:31.174Z,11.6
2023-05-02T05:01:22.963Z,11.6
2023-05-02T05:07:15.241Z,11.7
2023-05-02T05:13:07.534Z,11.5
2023-05-02T05:18:59.630Z,11.6
2023-05-02T05:24:52.136Z,11.4
2023-05-02T05:30:44.100Z,11.4
2023-05-02T05:36:36.248Z,11.6
2023-05-02T05:42:28.170Z,11.6
2023-05-02T05:48:19.696Z,11.5
2023-05-02T05:54:12.383Z,11.6
2023-05-02T06:00:04.850Z,11.6
2023-05-02T06:05:57.404Z,11.6
2023-05-02T06:11:51.422Z,11.6
2023-05-02T06:17:43.782Z,11.7
2023-05-02T06:23:35.528Z,11.5
2023-05-02T06:29:28.412Z,11.6
2023-05-02T06:35:22.808Z,11.7
2023-05-02T06:41:16.578Z,11.7
2023-05-02T06:47:07.959Z,11.6
2023-05-02T06:52:59.755Z,11.6
2023-05-02T06:58:51.725Z,11.6
2023-05-02T07:04:44.565Z,11.7
2023-05-02T07:10:37.159Z,11.8
2023-05-02T07:16:29.188Z,11.6
2023-05-02T07:22:22.021Z,11.7
2023-05-02T07:28:12.225Z,11.9
2023-05-02T07:34:04.372Z,12.1
2023-05-02T07:39:57.233Z,12.2
2023-05-02T07:45:51.348Z,12.1
2023-05-02T07:51:45.805Z,12
2023-05-02T07:57:38.062Z,11.9
2023-05-02T08:03:31.980Z,11.8
2023-05-02T08:09:25.567Z,11.9
2023-05-02T08:15:19.406Z,12.1
2023-05-02T08:21:11.118Z,12.1
2023-05-02T08:27:03.052Z,12
2023-05-02T08:32:58.114Z,12.2
2023-05-02T08:38:50.308Z,12.2
2023-05-02T08:44:42.782Z,12.1
2023-05-02T08:50:35.238Z,12
2023-05-02T08:56:27.447Z,12.2
2023-05-02T09:02:19.474Z,12.4
2023-05-02T09:08:12.924Z,12.4
2023-05-02T09:14:04.653Z,12.3
2023-05-02T09:19:56.773Z,11.8
2023-05-02T09:25:48.742Z,11.8
2023-05-02T09:37:43.865Z,11.8
2023-05-02T09:43:33.863Z,11.8
2023-05-02T09:49:25.633Z,12.1
2023-05-02T09:55:15.746Z,12.1
2023-05-02T10:01:06.671Z,12.3
2023-05-02T10:06:58.458Z,12.3
2023-05-02T10:12:50.359Z,12.3
2023-05-02T10:18:43.612Z,12.4
2023-05-02T10:24:35.466Z,12.5
2023-05-02T10:30:27.701Z,12.2
2023-05-02T10:36:21.241Z,12.1
2023-05-02T10:42:13.371Z,12.1
2023-05-02T10:48:05.053Z,11.7
2023-05-02T10:53:56.801Z,11.7
2023-05-02T10:59:53.269Z,11.9
2023-05-02T11:05:46.661Z,12.2
2023-05-02T11:11:38.572Z,12.1
2023-05-02T11:17:31.187Z,12.3
2023-05-02T11:23:23.252Z,12.3
2023-05-02T11:29:17.794Z,12.8
2023-05-02T11:35:11.283Z,12.9
2023-05-02T11:41:03.778Z,12.7
2023-05-02T11:46:55.056Z,12.7
2023-05-02T11:52:59.924Z,12.6
2023-05-02T12:05:10.513Z,13.1
2023-05-02T12:11:02.435Z,13.4
2023-05-02T12:16:53.270Z,13.3
2023-05-02T12:22:44.965Z,13.4
2023-05-02T12:28:36.526Z,13
2023-05-02T12:34:28.947Z,13.1
2023-05-02T12:40:20.996Z,13.4
2023-05-02T12:46:13.196Z,13.1
2023-05-02T12:52:05.055Z,13.4
2023-05-02T12:57:56.806Z,13.1
2023-05-02T13:03:48.493Z,13.1
2023-05-02T13:09:40.163Z,13.2
2023-05-02T13:15:31.490Z,13.4
2023-05-02T13:21:21.991Z,13.7
2023-05-02T13:27:12.502Z,13.7
2023-05-02T13:33:03.551Z,13.8
2023-05-02T13:38:54.789Z,13.7
2023-05-02T13:44:44.094Z,13.7
2023-05-02T13:50:34.559Z,14
2023-05-02T13:56:24.882Z,13.9
2023-05-02T14:02:15.949Z,13.9
2023-05-02T14:08:06.939Z,13.9
2023-05-02T14:13:58.406Z,14.4
2023-05-02T14:19:50.364Z,14.2
2023-05-02T14:25:43.392Z,14.1
2023-05-02T14:31:35.776Z,14.1
2023-05-02T14:37:27.456Z,14.1
2023-05-02T14:43:21.672Z,13.9
2023-05-02T14:49:13.323Z,14.2
2023-05-02T14:55:05.544Z,14.1
2023-05-02T15:00:58.132Z,14.1
2023-05-02T15:06:50.720Z,13.9
2023-05-02T15:12:45.256Z,13.8
2023-05-02T15:18:37.807Z,14.3
2023-05-02T15:24:30.637Z,14.1
2023-05-02T15:30:23.584Z,14.8
2023-05-02T15:36:15.274Z,14.6
2023-05-02T15:42:07.509Z,14.5
2023-05-02T15:48:00.467Z,14.4
2023-05-02T15:53:52.454Z,13.8
2023-05-02T16:00:54.655Z,13.9
2023-05-02T16:06:46.182Z,13.8
2023-05-02T16:12:40.510Z,13.8
2023-05-02T16:18:33.807Z,13.7
2023-05-02T16:24:28.193Z,13.8
2023-05-02T16:30:22.289Z,13.7
2023-05-02T16:36:17.791Z,13.8
2023-05-02T16:42:16.092Z,13.7
2023-05-02T16:48:13.675Z,13.7
2023-05-02T16:54:13.621Z,13.7
2023-05-02T17:00:06.680Z,13.8
2023-05-02T17:06:02.190Z,13.6
2023-05-02T17:11:54.492Z,13.6
2023-05-02T17:17:51.243Z,13.6
2023-05-02T17:23:42.534Z,13.5
2023-05-02T17:29:34.437Z,13.5
2023-05-02T17:35:26.784Z,13.3
2023-05-02T17:41:20.231Z,13.2
2023-05-02T17:47:13.213Z,13.4
2023-05-02T17:53:07.766Z,13.2
2023-05-02T17:58:59.657Z,13.2
2023-05-02T18:04:52.741Z,13.1
2023-05-02T18:10:53.440Z,13
2023-05-02T18:16:43.538Z,12.9
2023-05-02T18:22:39.057Z,12.9
2023-05-02T18:28:36.974Z,12.8
2023-05-02T18:34:35.609Z,12.9
2023-05-02T18:40:40.677Z,12.6
2023-05-02T18:46:43.605Z,12.5
2023-05-02T18:52:35.488Z,12.4
2023-05-02T18:58:27.645Z,12.3
2023-05-02T19:04:17.333Z,12
2023-05-02T19:10:11.425Z,12
2023-05-02T19:16:04.349Z,11.7
2023-05-02T19:21:58.468Z,11.8
2023-05-02T19:27:48.579Z,11.5
2023-05-02T19:33:39.358Z,11.4
2023-05-02T19:39:31.092Z,11.2
2023-05-02T19:45:27.317Z,11.1
2023-05-02T19:51:17.813Z,10.9
2023-05-02T19:57:09.164Z,10.7
2023-05-02T20:03:04.995Z,10.9
2023-05-02T20:08:59.305Z,10.4
2023-05-02T20:14:50.608Z,10.5
2023-05-02T20:20:41.152Z,10.2
2023-05-02T20:26:32.728Z,10.3
2023-05-02T20:32:25.187Z,10
2023-05-02T20:38:22.690Z,9.8
2023-05-02T20:44:16.597Z,9.8
2023-05-02T20:50:08.751Z,9.6
2023-05-02T20:56:01.932Z,9.1
2023-05-02T21:01:57.782Z,9.3
2023-05-02T21:07:50.398Z,9.4
2023-05-02T21:13:43.195Z,9.3
2023-05-02T21:19:34.734Z,9.1
2023-05-02T21:25:25.259Z,9.3
2023-05-02T21:31:20.228Z,9
2023-05-02T21:37:13.346Z,9
2023-05-02T21:43:05.350Z,8.9
2023-05-02T21:48:56.136Z,8.6
2023-05-02T21:54:48.772Z,8.7
2023-05-02T22:00:40.239Z,8.7
2023-05-02T22:06:32.384Z,8.6
2023-05-02T22:12:25.468Z,8.5
2023-05-02T22:18:17.901Z,8.2
2023-05-02T22:24:09.160Z,8.2
2023-05-02T22:30:01.896Z,8.4
2023-05-02T22:35:52.848Z,8.2
2023-05-02T22:41:44.875Z,7.9
2023-05-02T22:47:36.195Z,8.2
2023-05-02T22:53:29.952Z,7.9
2023-05-02T22:59:20.777Z,7.8
2023-05-02T23:05:12.970Z,7.9
2023-05-02T23:11:07.553Z,7.9
2023-05-02T23:16:58.323Z,7.2
2023-05-02T23:22:50.529Z,7.4
2023-05-02T23:28:41.728Z,7.3
2023-05-02T23:34:32.825Z,6.9
2023-05-02T23:40:23.040Z,6.7
2023-05-02T23:46:19.236Z,7.2
2023-05-02T23:52:10.236Z,7
2023-05-02T23:58:01.692Z,7
